Brighton, CO (80601)

3:13 PM MST on February 10, 2016 (GMT -0700)
Brighton East Farms | | Change Station
CLOSE
Current Station
Personal Weather Station
Location: Brighton, CO
Elevation: 5145 ft
Nearby Weather Stations

Elev 5145 ft 40.00 °N, 104.76 °W | Updated 12 minutes ago

Clear
Clear
63.1 °F
Feels Like 63.1 °F
N
13.5
Wind Variable Wind from West

Today
High -- | Low -- °F
--% Chance of Precip.
Yesterday
High -- | Low -- °F
Precip. -- in
Pressure 29.97 in
Visibility 10.0 miles
Clouds Few 15000 ft
Scattered Clouds 22000 ft
Dew Point 19 °F
Humidity 18%
Rainfall 0.00 in
Snow Depth Not available.
6:58 AM 5:28 PM
Waxing Crescent, 7% visible
METAR KDEN 102153Z 31015G20KT 10SM FEW150 SCT220 18/M07 A3008 RMK AO2 SLP149 T01831072
Pressure 29.97 in
Visibility 10.0 miles
Clouds Few 15000 ft
Scattered Clouds 22000 ft
Dew Point 19 °F
Humidity 18%
Rainfall 0.00 in
Snow Depth Not available.
6:58 AM 5:28 PM
Waxing Crescent, 7% visible
METAR KDEN 102153Z 31015G20KT 10SM FEW150 SCT220 18/M07 A3008 RMK AO2 SLP149 T01831072

10-Day Weather Forecast

Almanac

Astronomy

Feb. 10, 2016 Rise Set
Actual Time
Civil Twilight
Nautical Twilight
Astronomical Twilight
Moon
Length of Visible Light
Length of Day
Tomorrow will be .
, % of the Moon is Illuminated

Today's Extremes

State Highs State Lows

Community

WunderPhotos

Upload Photos

1,891,956 photos uploaded!

WunderBlog® & News

Nearby

Air Quality

  Air Quality AQ Index Pollutant
Not available.

Snow Depth

Station Depth Elevation

Earthquake Activity

City Distance Mag. Time & Date
Minimum magnitude displayed is 2.5.

Coastal Water Temperatures

Place Temperature

Stations

Nearby Weather Stations

Station Location Temp. Windchill Dew Point Humidity Wind Precip. Elev Updated Type
                   

Watches & Warnings

There are currently no watches in effect.